sensor_id;sensor_type;location;lat;lon;timestamp;P1;durP1;ratioP1;P2;durP2;ratioP2
43990;SDS011;29654;50.784;20.604;2022-12-29T00:01:58;10.85;;;6.63;;
43990;SDS011;29654;50.784;20.604;2022-12-29T00:07:01;11.43;;;7.72;;
43990;SDS011;29654;50.784;20.604;2022-12-29T00:12:06;11.85;;;7.28;;
43990;SDS011;29654;50.784;20.604;2022-12-29T00:17:08;11.82;;;7.68;;
43990;SDS011;29654;50.784;20.604;2022-12-29T00:22:11;11.55;;;7.60;;
43990;SDS011;29654;50.784;20.604;2022-12-29T00:27:34;10.35;;;7.38;;
43990;SDS011;29654;50.784;20.604;2022-12-29T00:32:54;11.95;;;7.53;;
43990;SDS011;29654;50.784;20.604;2022-12-29T00:38:23;11.52;;;7.00;;
43990;SDS011;29654;50.784;20.604;2022-12-29T00:43:45;9.77;;;6.85;;
43990;SDS011;29654;50.784;20.604;2022-12-29T00:49:04;10.85;;;7.50;;
43990;SDS011;29654;50.784;20.604;2022-12-29T00:54:26;10.45;;;6.75;;
43990;SDS011;29654;50.784;20.604;2022-12-29T00:59:31;11.82;;;7.30;;
43990;SDS011;29654;50.784;20.604;2022-12-29T01:04:35;8.38;;;5.97;;
43990;SDS011;29654;50.784;20.604;2022-12-29T01:09:38;7.72;;;6.43;;
43990;SDS011;29654;50.784;20.604;2022-12-29T01:14:59;10.02;;;6.55;;
43990;SDS011;29654;50.784;20.604;2022-12-29T01:20:01;9.27;;;5.93;;
43990;SDS011;29654;50.784;20.604;2022-12-29T01:25:05;9.15;;;5.65;;
43990;SDS011;29654;50.784;20.604;2022-12-29T01:30:11;8.88;;;5.35;;
43990;SDS011;29654;50.784;20.604;2022-12-29T01:35:14;9.05;;;6.18;;
43990;SDS011;29654;50.784;20.604;2022-12-29T01:40:17;8.20;;;5.47;;
43990;SDS011;29654;50.784;20.604;2022-12-29T01:45:21;6.93;;;5.50;;
43990;SDS011;29654;50.784;20.604;2022-12-29T01:50:25;8.15;;;5.25;;
43990;SDS011;29654;50.784;20.604;2022-12-29T01:55:34;7.03;;;5.07;;
43990;SDS011;29654;50.784;20.604;2022-12-29T02:00:43;7.13;;;5.40;;
43990;SDS011;29654;50.784;20.604;2022-12-29T02:05:47;8.35;;;5.13;;
43990;SDS011;29654;50.784;20.604;2022-12-29T02:10:55;6.82;;;5.35;;
43990;SDS011;29654;50.784;20.604;2022-12-29T02:16:01;6.43;;;4.93;;
43990;SDS011;29654;50.784;20.604;2022-12-29T02:32:49;5.85;;;4.35;;
43990;SDS011;29654;50.784;20.604;2022-12-29T02:38:03;4.93;;;3.92;;
43990;SDS011;29654;50.784;20.604;2022-12-29T02:43:18;6.05;;;4.32;;
43990;SDS011;29654;50.784;20.604;2022-12-29T02:48:29;5.43;;;4.05;;
43990;SDS011;29654;50.784;20.604;2022-12-29T02:53:34;6.07;;;3.90;;
43990;SDS011;29654;50.784;20.604;2022-12-29T02:58:56;5.25;;;3.45;;
43990;SDS011;29654;50.784;20.604;2022-12-29T03:04:03;5.70;;;3.97;;
43990;SDS011;29654;50.784;20.604;2022-12-29T03:09:26;5.35;;;4.03;;
43990;SDS011;29654;50.784;20.604;2022-12-29T03:14:39;5.22;;;3.75;;
43990;SDS011;29654;50.784;20.604;2022-12-29T03:20:10;4.60;;;3.45;;
43990;SDS011;29654;50.784;20.604;2022-12-29T03:25:23;5.25;;;4.05;;
43990;SDS011;29654;50.784;20.604;2022-12-29T03:30:30;6.65;;;4.25;;
43990;SDS011;29654;50.784;20.604;2022-12-29T03:35:38;6.38;;;4.93;;
43990;SDS011;29654;50.784;20.604;2022-12-29T03:40:46;8.20;;;5.03;;
43990;SDS011;29654;50.784;20.604;2022-12-29T03:45:59;6.40;;;4.65;;
43990;SDS011;29654;50.784;20.604;2022-12-29T03:51:04;4.90;;;3.80;;
43990;SDS011;29654;50.784;20.604;2022-12-29T03:56:07;6.45;;;4.35;;
43990;SDS011;29654;50.784;20.604;2022-12-29T04:01:11;7.55;;;4.70;;
43990;SDS011;29654;50.784;20.604;2022-12-29T04:06:15;5.13;;;3.92;;
43990;SDS011;29654;50.784;20.604;2022-12-29T04:11:30;6.20;;;3.80;;
43990;SDS011;29654;50.784;20.604;2022-12-29T04:16:34;4.60;;;3.90;;
43990;SDS011;29654;50.784;20.604;2022-12-29T04:21:41;6.00;;;4.07;;
43990;SDS011;29654;50.784;20.604;2022-12-29T04:26:44;6.47;;;3.88;;
43990;SDS011;29654;50.784;20.604;2022-12-29T04:32:10;4.60;;;3.30;;
43990;SDS011;29654;50.784;20.604;2022-12-29T04:37:20;5.07;;;4.07;;
43990;SDS011;29654;50.784;20.604;2022-12-29T04:42:23;5.05;;;3.70;;
43990;SDS011;29654;50.784;20.604;2022-12-29T04:47:26;5.70;;;3.50;;
43990;SDS011;29654;50.784;20.604;2022-12-29T04:52:39;6.57;;;4.15;;
43990;SDS011;29654;50.784;20.604;2022-12-29T04:57:44;5.00;;;3.92;;
43990;SDS011;29654;50.784;20.604;2022-12-29T05:02:51;5.07;;;3.63;;
43990;SDS011;29654;50.784;20.604;2022-12-29T05:07:56;5.75;;;4.05;;
43990;SDS011;29654;50.784;20.604;2022-12-29T05:12:59;4.60;;;3.60;;
43990;SDS011;29654;50.784;20.604;2022-12-29T05:18:02;5.05;;;4.18;;
43990;SDS011;29654;50.784;20.604;2022-12-29T05:23:06;4.60;;;3.55;;
43990;SDS011;29654;50.784;20.604;2022-12-29T05:28:09;4.18;;;3.40;;
43990;SDS011;29654;50.784;20.604;2022-12-29T05:33:16;3.67;;;3.28;;
43990;SDS011;29654;50.784;20.604;2022-12-29T05:38:23;5.50;;;3.28;;
43990;SDS011;29654;50.784;20.604;2022-12-29T05:43:25;4.57;;;3.45;;
43990;SDS011;29654;50.784;20.604;2022-12-29T05:48:54;4.05;;;3.38;;
43990;SDS011;29654;50.784;20.604;2022-12-29T05:54:10;3.67;;;3.22;;
43990;SDS011;29654;50.784;20.604;2022-12-29T05:59:14;3.67;;;3.13;;
43990;SDS011;29654;50.784;20.604;2022-12-29T06:04:17;5.07;;;3.20;;
43990;SDS011;29654;50.784;20.604;2022-12-29T06:09:21;4.90;;;3.38;;
43990;SDS011;29654;50.784;20.604;2022-12-29T06:14:23;4.28;;;3.38;;
43990;SDS011;29654;50.784;20.604;2022-12-29T06:19:26;3.67;;;3.35;;
43990;SDS011;29654;50.784;20.604;2022-12-29T06:24:30;3.55;;;3.13;;
43990;SDS011;29654;50.784;20.604;2022-12-29T06:29:33;5.35;;;3.50;;
43990;SDS011;29654;50.784;20.604;2022-12-29T06:34:37;4.53;;;3.60;;
43990;SDS011;29654;50.784;20.604;2022-12-29T06:39:41;3.47;;;3.10;;
43990;SDS011;29654;50.784;20.604;2022-12-29T06:44:48;4.07;;;3.60;;
43990;SDS011;29654;50.784;20.604;2022-12-29T06:49:50;8.32;;;3.83;;
43990;SDS011;29654;50.784;20.604;2022-12-29T06:54:54;5.38;;;3.42;;
43990;SDS011;29654;50.784;20.604;2022-12-29T06:59:57;4.38;;;3.83;;
43990;SDS011;29654;50.784;20.604;2022-12-29T07:04:59;5.50;;;3.92;;
43990;SDS011;29654;50.784;20.604;2022-12-29T07:10:04;7.68;;;3.95;;
43990;SDS011;29654;50.784;20.604;2022-12-29T07:15:07;4.75;;;3.20;;
43990;SDS011;29654;50.784;20.604;2022-12-29T07:20:10;4.80;;;3.58;;
43990;SDS011;29654;50.784;20.604;2022-12-29T07:25:14;7.90;;;3.90;;
43990;SDS011;29654;50.784;20.604;2022-12-29T07:30:17;4.13;;;3.55;;
43990;SDS011;29654;50.784;20.604;2022-12-29T07:35:20;6.13;;;4.15;;
43990;SDS011;29654;50.784;20.604;2022-12-29T07:40:24;4.82;;;3.58;;
43990;SDS011;29654;50.784;20.604;2022-12-29T07:45:26;7.22;;;4.45;;
43990;SDS011;29654;50.784;20.604;2022-12-29T07:50:37;4.55;;;3.70;;
43990;SDS011;29654;50.784;20.604;2022-12-29T07:55:41;5.07;;;4.18;;
43990;SDS011;29654;50.784;20.604;2022-12-29T08:00:44;4.63;;;3.63;;
43990;SDS011;29654;50.784;20.604;2022-12-29T08:05:47;5.90;;;4.45;;
43990;SDS011;29654;50.784;20.604;2022-12-29T08:10:51;4.72;;;3.97;;
43990;SDS011;29654;50.784;20.604;2022-12-29T08:15:54;5.60;;;3.72;;
43990;SDS011;29654;50.784;20.604;2022-12-29T08:20:58;4.07;;;3.65;;
43990;SDS011;29654;50.784;20.604;2022-12-29T08:26:05;5.15;;;3.88;;
43990;SDS011;29654;50.784;20.604;2022-12-29T08:31:08;5.80;;;3.97;;
43990;SDS011;29654;50.784;20.604;2022-12-29T08:36:11;4.45;;;3.72;;
43990;SDS011;29654;50.784;20.604;2022-12-29T08:41:15;5.57;;;4.68;;
43990;SDS011;29654;50.784;20.604;2022-12-29T08:46:17;5.53;;;4.25;;
43990;SDS011;29654;50.784;20.604;2022-12-29T08:51:20;5.60;;;4.32;;
43990;SDS011;29654;50.784;20.604;2022-12-29T08:56:24;6.10;;;4.50;;
43990;SDS011;29654;50.784;20.604;2022-12-29T09:01:30;4.90;;;3.88;;
43990;SDS011;29654;50.784;20.604;2022-12-29T09:06:33;5.78;;;3.83;;
43990;SDS011;29654;50.784;20.604;2022-12-29T09:11:38;5.25;;;3.90;;
43990;SDS011;29654;50.784;20.604;2022-12-29T09:16:40;4.90;;;3.65;;
43990;SDS011;29654;50.784;20.604;2022-12-29T09:22:00;6.22;;;3.85;;
43990;SDS011;29654;50.784;20.604;2022-12-29T09:27:04;6.88;;;4.43;;
43990;SDS011;29654;50.784;20.604;2022-12-29T09:32:07;5.60;;;3.95;;
43990;SDS011;29654;50.784;20.604;2022-12-29T09:37:09;6.28;;;4.28;;
43990;SDS011;29654;50.784;20.604;2022-12-29T09:42:14;4.60;;;3.83;;
43990;SDS011;29654;50.784;20.604;2022-12-29T09:47:23;7.10;;;5.05;;
43990;SDS011;29654;50.784;20.604;2022-12-29T09:52:29;7.50;;;5.03;;
43990;SDS011;29654;50.784;20.604;2022-12-29T09:57:40;5.57;;;4.70;;
43990;SDS011;29654;50.784;20.604;2022-12-29T10:02:49;4.97;;;4.13;;
43990;SDS011;29654;50.784;20.604;2022-12-29T10:07:58;5.43;;;4.43;;
43990;SDS011;29654;50.784;20.604;2022-12-29T10:13:20;5.40;;;4.20;;
43990;SDS011;29654;50.784;20.604;2022-12-29T10:18:40;5.53;;;4.05;;
43990;SDS011;29654;50.784;20.604;2022-12-29T10:23:57;3.95;;;3.42;;
43990;SDS011;29654;50.784;20.604;2022-12-29T10:29:08;8.50;;;4.40;;
43990;SDS011;29654;50.784;20.604;2022-12-29T10:34:19;4.15;;;3.70;;
43990;SDS011;29654;50.784;20.604;2022-12-29T10:39:26;5.43;;;4.05;;
43990;SDS011;29654;50.784;20.604;2022-12-29T10:44:36;6.28;;;4.03;;
43990;SDS011;29654;50.784;20.604;2022-12-29T10:49:41;7.05;;;4.07;;
43990;SDS011;29654;50.784;20.604;2022-12-29T10:54:48;4.95;;;3.97;;
43990;SDS011;29654;50.784;20.604;2022-12-29T10:59:56;6.10;;;4.03;;
43990;SDS011;29654;50.784;20.604;2022-12-29T11:05:00;8.25;;;4.70;;
43990;SDS011;29654;50.784;20.604;2022-12-29T11:10:16;6.80;;;4.30;;
43990;SDS011;29654;50.784;20.604;2022-12-29T11:15:23;9.00;;;4.65;;
43990;SDS011;29654;50.784;20.604;2022-12-29T11:20:27;4.53;;;3.92;;
43990;SDS011;29654;50.784;20.604;2022-12-29T11:25:34;5.97;;;4.20;;
43990;SDS011;29654;50.784;20.604;2022-12-29T11:30:37;6.57;;;4.47;;
43990;SDS011;29654;50.784;20.604;2022-12-29T11:35:41;5.10;;;4.10;;
43990;SDS011;29654;50.784;20.604;2022-12-29T11:40:44;6.07;;;4.18;;
43990;SDS011;29654;50.784;20.604;2022-12-29T11:45:48;7.93;;;4.72;;
43990;SDS011;29654;50.784;20.604;2022-12-29T11:50:54;5.57;;;3.97;;
43990;SDS011;29654;50.784;20.604;2022-12-29T11:56:00;4.65;;;3.97;;
43990;SDS011;29654;50.784;20.604;2022-12-29T12:01:10;7.35;;;4.68;;
43990;SDS011;29654;50.784;20.604;2022-12-29T12:06:19;6.85;;;4.28;;
43990;SDS011;29654;50.784;20.604;2022-12-29T12:11:25;6.43;;;4.50;;
43990;SDS011;29654;50.784;20.604;2022-12-29T12:16:39;5.35;;;4.38;;
43990;SDS011;29654;50.784;20.604;2022-12-29T12:21:47;6.28;;;4.53;;
43990;SDS011;29654;50.784;20.604;2022-12-29T12:26:58;7.35;;;5.30;;
43990;SDS011;29654;50.784;20.604;2022-12-29T12:32:08;6.97;;;4.53;;
43990;SDS011;29654;50.784;20.604;2022-12-29T12:37:21;5.95;;;4.32;;
43990;SDS011;29654;50.784;20.604;2022-12-29T12:42:40;4.95;;;4.43;;
43990;SDS011;29654;50.784;20.604;2022-12-29T12:47:59;5.90;;;4.53;;
43990;SDS011;29654;50.784;20.604;2022-12-29T12:53:20;6.55;;;4.40;;
43990;SDS011;29654;50.784;20.604;2022-12-29T12:58:47;7.97;;;4.93;;
43990;SDS011;29654;50.784;20.604;2022-12-29T13:04:01;4.57;;;3.63;;
43990;SDS011;29654;50.784;20.604;2022-12-29T13:09:33;6.43;;;4.53;;
43990;SDS011;29654;50.784;20.604;2022-12-29T13:14:52;9.88;;;5.25;;
43990;SDS011;29654;50.784;20.604;2022-12-29T13:20:14;6.80;;;5.18;;
43990;SDS011;29654;50.784;20.604;2022-12-29T13:25:28;8.25;;;5.10;;
43990;SDS011;29654;50.784;20.604;2022-12-29T13:30:41;7.55;;;5.22;;
43990;SDS011;29654;50.784;20.604;2022-12-29T13:35:53;6.80;;;5.10;;
43990;SDS011;29654;50.784;20.604;2022-12-29T13:41:03;6.10;;;5.10;;
43990;SDS011;29654;50.784;20.604;2022-12-29T13:46:12;7.22;;;4.93;;
43990;SDS011;29654;50.784;20.604;2022-12-29T13:51:21;6.25;;;5.35;;
43990;SDS011;29654;50.784;20.604;2022-12-29T13:56:29;6.25;;;5.45;;
43990;SDS011;29654;50.784;20.604;2022-12-29T14:01:38;8.40;;;5.72;;
43990;SDS011;29654;50.784;20.604;2022-12-29T14:06:48;7.45;;;5.32;;
43990;SDS011;29654;50.784;20.604;2022-12-29T14:12:10;6.88;;;5.75;;
43990;SDS011;29654;50.784;20.604;2022-12-29T14:17:33;8.23;;;5.75;;
43990;SDS011;29654;50.784;20.604;2022-12-29T14:22:37;7.22;;;6.25;;
43990;SDS011;29654;50.784;20.604;2022-12-29T14:27:59;7.82;;;6.18;;
43990;SDS011;29654;50.784;20.604;2022-12-29T14:33:25;6.82;;;6.13;;
43990;SDS011;29654;50.784;20.604;2022-12-29T14:38:32;7.63;;;6.28;;
43990;SDS011;29654;50.784;20.604;2022-12-29T14:49:20;7.70;;;6.65;;
43990;SDS011;29654;50.784;20.604;2022-12-29T14:54:49;8.48;;;5.70;;
43990;SDS011;29654;50.784;20.604;2022-12-29T14:59:54;9.05;;;7.10;;
43990;SDS011;29654;50.784;20.604;2022-12-29T15:05:03;8.75;;;6.45;;
43990;SDS011;29654;50.784;20.604;2022-12-29T15:10:11;8.18;;;6.45;;
43990;SDS011;29654;50.784;20.604;2022-12-29T15:15:19;8.60;;;5.95;;
43990;SDS011;29654;50.784;20.604;2022-12-29T15:20:25;8.20;;;6.80;;
43990;SDS011;29654;50.784;20.604;2022-12-29T15:25:33;9.00;;;7.28;;
43990;SDS011;29654;50.784;20.604;2022-12-29T15:30:36;9.43;;;6.38;;
43990;SDS011;29654;50.784;20.604;2022-12-29T15:35:54;11.75;;;10.52;;
43990;SDS011;29654;50.784;20.604;2022-12-29T15:41:00;8.65;;;7.60;;
43990;SDS011;29654;50.784;20.604;2022-12-29T15:46:08;8.38;;;6.93;;
43990;SDS011;29654;50.784;20.604;2022-12-29T15:51:18;9.38;;;7.03;;
43990;SDS011;29654;50.784;20.604;2022-12-29T15:56:24;9.75;;;7.85;;
43990;SDS011;29654;50.784;20.604;2022-12-29T16:01:31;12.27;;;8.20;;
43990;SDS011;29654;50.784;20.604;2022-12-29T16:06:36;10.63;;;8.13;;
43990;SDS011;29654;50.784;20.604;2022-12-29T16:11:42;10.30;;;8.27;;
43990;SDS011;29654;50.784;20.604;2022-12-29T16:16:48;10.60;;;8.52;;
43990;SDS011;29654;50.784;20.604;2022-12-29T16:21:52;12.98;;;8.48;;
43990;SDS011;29654;50.784;20.604;2022-12-29T16:26:59;12.55;;;9.02;;
43990;SDS011;29654;50.784;20.604;2022-12-29T16:32:22;11.70;;;8.63;;
43990;SDS011;29654;50.784;20.604;2022-12-29T16:37:28;11.63;;;9.18;;
43990;SDS011;29654;50.784;20.604;2022-12-29T16:42:35;13.00;;;9.05;;
43990;SDS011;29654;50.784;20.604;2022-12-29T16:47:47;12.10;;;8.38;;
43990;SDS011;29654;50.784;20.604;2022-12-29T16:53:16;13.82;;;8.55;;
43990;SDS011;29654;50.784;20.604;2022-12-29T16:58:24;12.82;;;9.25;;
43990;SDS011;29654;50.784;20.604;2022-12-29T17:03:30;12.38;;;9.07;;
43990;SDS011;29654;50.784;20.604;2022-12-29T17:08:41;15.63;;;9.73;;
43990;SDS011;29654;50.784;20.604;2022-12-29T17:13:46;13.73;;;8.85;;
43990;SDS011;29654;50.784;20.604;2022-12-29T17:18:49;14.13;;;9.35;;
43990;SDS011;29654;50.784;20.604;2022-12-29T17:23:52;12.82;;;9.48;;
43990;SDS011;29654;50.784;20.604;2022-12-29T17:32:02;11.65;;;9.52;;
43990;SDS011;29654;50.784;20.604;2022-12-29T17:37:11;14.40;;;10.65;;
43990;SDS011;29654;50.784;20.604;2022-12-29T17:42:39;15.90;;;10.20;;
43990;SDS011;29654;50.784;20.604;2022-12-29T17:47:46;12.93;;;9.45;;
43990;SDS011;29654;50.784;20.604;2022-12-29T17:52:49;12.77;;;9.63;;
43990;SDS011;29654;50.784;20.604;2022-12-29T17:57:53;12.40;;;9.43;;
43990;SDS011;29654;50.784;20.604;2022-12-29T18:02:57;12.40;;;9.57;;
43990;SDS011;29654;50.784;20.604;2022-12-29T18:08:00;13.25;;;8.70;;
43990;SDS011;29654;50.784;20.604;2022-12-29T18:13:03;12.05;;;9.18;;
43990;SDS011;29654;50.784;20.604;2022-12-29T18:18:10;12.45;;;8.45;;
43990;SDS011;29654;50.784;20.604;2022-12-29T18:23:17;13.60;;;9.85;;
43990;SDS011;29654;50.784;20.604;2022-12-29T18:28:22;11.75;;;9.90;;
43990;SDS011;29654;50.784;20.604;2022-12-29T18:33:27;13.93;;;9.88;;
43990;SDS011;29654;50.784;20.604;2022-12-29T18:38:30;11.45;;;9.50;;
43990;SDS011;29654;50.784;20.604;2022-12-29T18:43:33;11.63;;;8.35;;
43990;SDS011;29654;50.784;20.604;2022-12-29T18:48:37;11.77;;;9.32;;
43990;SDS011;29654;50.784;20.604;2022-12-29T18:53:40;12.63;;;9.65;;
43990;SDS011;29654;50.784;20.604;2022-12-29T18:58:42;13.70;;;10.50;;
43990;SDS011;29654;50.784;20.604;2022-12-29T19:03:46;15.43;;;10.93;;
43990;SDS011;29654;50.784;20.604;2022-12-29T19:08:49;13.70;;;10.35;;
43990;SDS011;29654;50.784;20.604;2022-12-29T19:13:52;15.48;;;10.90;;
43990;SDS011;29654;50.784;20.604;2022-12-29T19:18:56;13.75;;;9.98;;
43990;SDS011;29654;50.784;20.604;2022-12-29T19:24:00;14.63;;;10.38;;
43990;SDS011;29654;50.784;20.604;2022-12-29T19:29:03;12.55;;;10.10;;
43990;SDS011;29654;50.784;20.604;2022-12-29T19:34:10;14.27;;;10.85;;
43990;SDS011;29654;50.784;20.604;2022-12-29T19:39:14;14.55;;;9.73;;
43990;SDS011;29654;50.784;20.604;2022-12-29T19:44:17;13.45;;;9.65;;
43990;SDS011;29654;50.784;20.604;2022-12-29T19:49:21;13.63;;;10.30;;
43990;SDS011;29654;50.784;20.604;2022-12-29T19:54:24;14.82;;;9.80;;
43990;SDS011;29654;50.784;20.604;2022-12-29T19:59:26;12.98;;;10.45;;
43990;SDS011;29654;50.784;20.604;2022-12-29T20:04:31;12.70;;;9.63;;
43990;SDS011;29654;50.784;20.604;2022-12-29T20:09:33;13.98;;;11.15;;
43990;SDS011;29654;50.784;20.604;2022-12-29T20:14:36;16.30;;;11.77;;
43990;SDS011;29654;50.784;20.604;2022-12-29T20:19:40;12.77;;;10.38;;
43990;SDS011;29654;50.784;20.604;2022-12-29T20:24:43;16.77;;;11.30;;
43990;SDS011;29654;50.784;20.604;2022-12-29T20:29:46;15.18;;;11.50;;
43990;SDS011;29654;50.784;20.604;2022-12-29T20:34:50;14.68;;;11.00;;
43990;SDS011;29654;50.784;20.604;2022-12-29T20:39:54;16.60;;;12.13;;
43990;SDS011;29654;50.784;20.604;2022-12-29T20:44:57;15.95;;;12.15;;
43990;SDS011;29654;50.784;20.604;2022-12-29T20:50:02;15.68;;;12.07;;
43990;SDS011;29654;50.784;20.604;2022-12-29T20:55:05;17.15;;;12.82;;
43990;SDS011;29654;50.784;20.604;2022-12-29T21:00:13;17.92;;;12.55;;
43990;SDS011;29654;50.784;20.604;2022-12-29T21:05:17;18.10;;;13.20;;
43990;SDS011;29654;50.784;20.604;2022-12-29T21:10:20;15.80;;;11.93;;
43990;SDS011;29654;50.784;20.604;2022-12-29T21:15:24;17.80;;;13.55;;
43990;SDS011;29654;50.784;20.604;2022-12-29T21:20:28;15.30;;;12.23;;
43990;SDS011;29654;50.784;20.604;2022-12-29T21:25:32;18.25;;;13.90;;
43990;SDS011;29654;50.784;20.604;2022-12-29T21:30:37;20.15;;;13.20;;
43990;SDS011;29654;50.784;20.604;2022-12-29T21:35:41;21.55;;;15.77;;
43990;SDS011;29654;50.784;20.604;2022-12-29T21:40:44;19.77;;;14.02;;
43990;SDS011;29654;50.784;20.604;2022-12-29T21:45:48;20.45;;;14.52;;
43990;SDS011;29654;50.784;20.604;2022-12-29T21:50:52;18.55;;;14.07;;
43990;SDS011;29654;50.784;20.604;2022-12-29T21:56:16;21.08;;;15.23;;
43990;SDS011;29654;50.784;20.604;2022-12-29T22:01:20;16.00;;;13.48;;
43990;SDS011;29654;50.784;20.604;2022-12-29T22:06:42;17.65;;;12.88;;
43990;SDS011;29654;50.784;20.604;2022-12-29T22:12:02;17.27;;;12.23;;
43990;SDS011;29654;50.784;20.604;2022-12-29T22:17:22;16.27;;;12.02;;
43990;SDS011;29654;50.784;20.604;2022-12-29T22:22:26;16.00;;;12.25;;
43990;SDS011;29654;50.784;20.604;2022-12-29T22:27:29;16.35;;;11.77;;
43990;SDS011;29654;50.784;20.604;2022-12-29T22:32:32;17.50;;;13.80;;
43990;SDS011;29654;50.784;20.604;2022-12-29T22:37:37;17.15;;;12.27;;
43990;SDS011;29654;50.784;20.604;2022-12-29T22:42:42;14.75;;;11.48;;
43990;SDS011;29654;50.784;20.604;2022-12-29T22:47:45;13.32;;;10.77;;
43990;SDS011;29654;50.784;20.604;2022-12-29T22:52:50;14.45;;;10.57;;
43990;SDS011;29654;50.784;20.604;2022-12-29T22:57:52;13.00;;;11.02;;
43990;SDS011;29654;50.784;20.604;2022-12-29T23:02:55;15.80;;;11.10;;
43990;SDS011;29654;50.784;20.604;2022-12-29T23:08:00;14.57;;;11.35;;
43990;SDS011;29654;50.784;20.604;2022-12-29T23:13:02;15.18;;;10.68;;
43990;SDS011;29654;50.784;20.604;2022-12-29T23:18:06;14.68;;;11.27;;
43990;SDS011;29654;50.784;20.604;2022-12-29T23:23:10;13.50;;;11.35;;
43990;SDS011;29654;50.784;20.604;2022-12-29T23:28:12;14.52;;;11.32;;
43990;SDS011;29654;50.784;20.604;2022-12-29T23:33:15;13.32;;;10.52;;
43990;SDS011;29654;50.784;20.604;2022-12-29T23:38:19;12.73;;;10.07;;
43990;SDS011;29654;50.784;20.604;2022-12-29T23:43:22;14.40;;;10.52;;
43990;SDS011;29654;50.784;20.604;2022-12-29T23:48:25;14.65;;;10.27;;
43990;SDS011;29654;50.784;20.604;2022-12-29T23:53:29;11.63;;;8.82;;
43990;SDS011;29654;50.784;20.604;2022-12-29T23:58:32;14.00;;;10.65;;
